Latest Coastal Weather Observations for Larapuna (Eddystone Point)

IDT60701

Issued at 1:32 pm EST Sunday 30 August 2015 (issued every 10 minutes, with the page automatically refreshed every 10 minutes)

About coastal observations | Map of coastal stations | Coastal observations for TAS | Marine services | Other Formats
Station Details ID: 092045 Name: LARAPUNA (EDDYSTONE POINT) Lat: -40.99 Lon: 148.35 Height: 19.7 m
Data from the previous 72 hours. | See also: Recent months at Larapuna (Eddystone Point)
Date/Time
EST
Temp

°C
Wind Pressure Rain
since 9am
mm
Weather Cloud Vis
km
Sea
Height
m
Swell
Dir
 
Speed
knots
Gust
knots
hPa Trend Height
m
Period
s
Dir
30/01:30pm 11.7 SSE 25 29 1021.0 - 0.0 - - - - - - -
30/01:00pm 12.0 S 24 31 1021.4 - 0.0 - - - - - - -
30/12:30pm 11.7 S 27 32 1021.6 - 0.0 - - - - - - -
30/12:00pm 11.9 S 29 34 1021.9 - 0.0 - - - - - - -
30/11:30am 11.7 S 26 33 1022.4 - 0.0 - - - - - - -
30/11:00am 11.3 S 29 35 1022.4 - 0.0 - - - - - - -
30/10:30am 11.5 S 29 34 1022.5 - 0.0 - - - - - - -
30/10:00am 11.3 S 30 34 1022.4 - 0.0 - - - - - - -
30/09:30am 10.5 S 28 34 1022.5 - 0.0 - - - - - - -
30/09:00am 9.9 SSW 23 28 1022.6 - 2.4 - - - - - - -
30/08:30am 9.6 SSW 25 30 1022.5 - 2.4 - - - - - - -
30/08:00am 8.9 SSW 20 24 1022.6 - 2.4 - - - - - - -
30/07:30am 8.1 SSW 20 27 1022.4 - 2.4 - - - - - - -
30/07:04am 7.7 SSW 25 35 1022.0 - 2.4 - - - - - - -
30/07:00am 7.9 SSW 28 35 1021.8 - 2.4 - - - - - - -
30/06:30am 8.1 S 28 34 1021.3 - 2.4 - - - - - - -
30/06:00am 7.8 SSW 27 32 1021.1 - 2.4 - - - - - - -
30/05:36am 7.9 SSW 30 40 1021.0 - 2.4 - - - - - - -
30/05:30am 8.1 SSW 31 40 1020.9 - 2.4 - - - - - - -
30/05:00am 7.7 SSW 28 35 1020.6 - 2.4 - - - - - - -
30/04:30am 7.7 SSW 25 31 1020.5 - 2.4 - - - - - - -
30/04:00am 7.6 SSW 25 31 1020.7 - 2.4 - - - - - - -
30/03:30am 7.7 SSW 22 27 1021.0 - 2.4 - - - - - - -
30/03:00am 8.2 SSW 26 32 1020.9 - 2.4 - - - - - - -
30/02:30am 8.3 SSW 23 29 1021.0 - 2.4 - - - - - - -
30/02:00am 8.6 S 26 36 1021.2 - 2.4 - - - - - - -
30/01:58am 8.6 SSW 25 36 1021.2 - 2.4 - - - - - - -
30/01:30am 8.6 SSW 26 35 1021.5 - 2.4 - - - - - - -
30/01:15am 8.8 SSW 27 37 1021.5 - 2.4 - - - - - - -
30/01:00am 9.0 SSW 25 32 1021.7 - 2.4 - - - - - - -
30/12:58am 8.7 SSW 26 36 1021.8 - 2.4 - - - - - - -
30/12:30am 9.0 SSW 31 37 1021.3 - 2.4 - - - - - - -
30/12:00am 9.1 SSW 30 36 1021.2 - 2.4 - - - - - - -
 
Date/Time
EST
Temp

°C
Wind Pressure Rain
since 9am
mm
Weather Cloud Vis
km
Sea
Height
m
Swell
Dir
 
Speed
knots
Gust
knots
hPa Trend Height
m
Period
s
Dir
29/11:30pm 9.3 S 30 36 1020.9 - 2.4 - - - - - - -
29/11:00pm 9.3 S 32 39 1020.8 - 2.4 - - - - - - -
29/10:30pm 9.6 S 31 37 1020.9 - 2.4 - - - - - - -
29/10:00pm 9.5 S 34 41 1020.6 - 2.4 - - - - - - -
29/09:30pm 9.6 S 34 43 1020.6 - 2.4 - - - - - - -
29/09:13pm 9.6 S 32 42 1020.4 - 2.4 - - - - - - -
29/09:00pm 9.8 S 32 38 1020.5 - 2.4 - - - - - - -
29/08:30pm 9.7 S 32 39 1020.2 - 2.4 - - - - - - -
29/08:00pm 9.8 SSW 33 40 1020.0 - 2.4 - - - - - - -
29/07:30pm 10.0 SSW 31 37 1019.9 - 2.4 - - - - - - -
29/07:00pm 9.9 SSW 31 36 1019.5 - 2.4 - - - - - - -
29/06:30pm 10.2 SSW 32 40 1019.3 - 2.4 - - - - - - -
29/06:01pm 10.0 SSW 31 42 1018.6 - 2.4 - - - - - - -
29/06:00pm 10.1 SSW 31 36 1018.6 - 2.4 - - - - - - -
29/05:30pm 10.1 SSW 29 37 1018.3 - 2.4 - - - - - - -
29/05:00pm 10.2 SSW 28 36 1017.9 - 2.4 - - - - - - -
29/04:30pm 10.4 S 29 37 1017.5 - 2.4 - - - - - - -
29/04:24pm 10.6 SSW 29 39 1017.7 - 2.4 - - - - - - -
29/04:00pm 10.7 SSW 33 41 1017.2 - 2.4 - - - - - - -
29/03:42pm 10.4 SSW 31 41 1017.0 - 2.4 - - - - - - -
29/03:30pm 10.4 SSW 30 35 1017.1 - 2.4 - - - - - - -
29/03:00pm 10.8 S 29 37 1017.0 - 2.4 - - - - - - -
29/02:30pm 10.7 SSW 32 40 1016.5 - 2.4 - - - - - - -
29/02:22pm 10.6 SSW 30 40 1016.4 - 2.4 - - - - - - -
29/02:00pm 10.8 S 32 38 1016.3 - 2.4 - - - - - - -
29/01:30pm 10.9 S 33 39 1016.1 - 2.4 - - - - - - -
29/01:19pm 10.9 SSW 32 42 1016.1 - 2.4 - - - - - - -
29/01:00pm 11.0 S 33 40 1016.1 - 2.4 - - - - - - -
29/12:42pm 10.9 S 29 39 1016.3 - 2.4 - - - - - - -
29/12:30pm 10.9 S 29 33 1016.3 - 2.4 - - - - - - -
29/12:03pm 10.5 SSW 30 40 1016.3 - 2.4 - - - - - - -
29/12:00pm 10.5 SSW 31 40 1016.3 - 2.4 - - - - - - -
29/11:54am 10.2 SSW 30 40 1016.3 - 2.4 - - - - - - -
29/11:30am 9.8 SSW 28 35 1016.4 - 2.4 - - - - - - -
29/11:19am 9.7 SSW 25 35 1016.4 - 2.4 - - - - - - -
29/11:00am 9.7 SSW 25 34 1016.5 - 2.4 - - - - - - -
29/10:46am 9.0 SSW 25 35 1016.5 - 2.4 - - - - - - -
29/10:30am 8.7 SSW 21 27 1016.5 - 2.2 - - - - - - -
29/10:00am 8.1 SW 23 26 1016.3 - 1.6 - - - - - - -
29/09:30am 7.1 SW 19 22 1016.5 - 0.8 - - - - - - -
29/09:00am 5.7 WSW 12 15 1016.5 - 0.4 Rain - - - - - -
29/08:30am 5.1 W 13 17 1016.6 - 0.2 - - - - - - -
29/08:00am 4.9 W 12 16 1016.7 - 0.0 - - - - - - -
29/07:30am 4.7 W 13 16 1016.7 - 0.0 - - - - - - -
29/07:00am 3.9 W 10 13 1016.7 - 0.0 - - - - - - -
29/06:30am 4.1 W 12 15 1016.5 - 0.0 - - - - - - -
29/06:00am 4.1 W 14 19 1016.4 - 0.0 - - - - - - -
29/05:30am 3.6 W 15 18 1016.2 - 0.0 - - - - - - -
29/05:00am 3.6 W 15 19 1016.2 - 0.0 - - - - - - -
29/04:30am 3.2 W 15 20 1016.1 - 0.0 - - - - - - -
29/04:00am 3.6 W 14 20 1016.2 - 0.0 - - - - - - -
29/03:30am 3.7 W 15 22 1016.6 - 0.0 - - - - - - -
29/03:00am 3.0 WNW 12 16 1017.0 - 0.0 - - - - - - -
29/02:30am 3.0 WNW 13 15 1017.5 - 0.0 - - - - - - -
29/02:00am 3.2 WNW 10 14 1018.1 - 0.0 - - - - - - -
29/01:30am 3.7 WNW 13 19 1018.4 - 0.0 - - - - - - -
29/01:00am 3.5 WNW 13 16 1018.7 - 0.0 - - - - - - -
29/12:30am 3.9 WNW 12 15 1019.3 - 0.0 - - - - - - -
29/12:00am 3.9 WNW 11 14 1019.8 - 0.0 - - - - - - -
 
Date/Time
EST
Temp

°C
Wind Pressure Rain
since 9am
mm
Weather Cloud Vis
km
Sea
Height
m
Swell
Dir
 
Speed
knots
Gust
knots
hPa Trend Height
m
Period
s
Dir
28/11:30pm 4.4 WNW 11 13 1020.3 - 0.0 - - - - - - -
28/11:00pm 3.9 WNW 11 14 1020.8 - 0.0 - - - - - - -
28/10:30pm 3.8 WNW 12 14 1021.1 - 0.0 - - - - - - -
28/10:00pm 3.8 WNW 10 13 1021.7 - 0.0 - - - - - - -
28/09:30pm 4.2 WSW 11 13 1022.1 - 0.0 - - - - - - -
28/09:00pm 5.2 WSW 13 16 1022.2 - 0.0 - - - - - - -
28/08:30pm 6.0 SW 16 19 1022.6 - 0.0 - - - - - - -
28/08:00pm 5.8 SW 15 20 1022.5 - 0.0 - - - - - - -
28/07:47pm 6.1 SW 17 27 1022.4 - 0.0 - - - - - - -
28/07:30pm 6.5 SSW 20 29 1022.4 - 0.0 - - - - - - -
28/07:00pm 6.6 SW 18 21 1022.8 - 0.0 - - - - - - -
28/06:30pm 7.2 SW 21 26 1022.7 - 0.0 - - - - - - -
28/06:00pm 7.3 SW 14 17 1022.6 - 0.0 - - - - - - -
28/05:30pm 7.9 SSW 17 20 1022.3 - 0.0 - - - - - - -
28/05:00pm 8.5 S 20 24 1022.2 - 0.0 - - - - - - -
28/04:30pm 9.3 S 25 30 1022.1 - 0.0 - - - - - - -
28/04:00pm 9.2 S 20 24 1022.2 - 0.0 - - - - - - -
28/03:30pm 9.8 S 24 29 1022.3 - 0.0 - - - - - - -
28/03:00pm 9.8 SSW 24 29 1022.2 - 0.0 - - - - - - -
28/02:30pm 10.2 S 24 27 1022.2 - 0.0 - - - - - - -
28/02:00pm 10.2 S 29 37 1022.0 - 0.0 - - - - - - -
28/01:30pm 10.1 S 29 34 1022.2 - 0.0 - - - - - - -
28/01:00pm 11.1 S 24 29 1022.4 - 0.0 - - - - - - -
28/12:30pm 10.6 S 26 32 1022.5 - 0.0 - - - - - - -
28/12:00pm 11.0 S 25 31 1022.8 - 0.0 - - - - - - -
28/11:30am 10.6 S 28 33 1022.9 - 0.0 - - - - - - -
28/11:00am 10.0 S 30 35 1023.0 - 0.0 - - - - - - -
28/10:30am 10.3 S 29 35 1023.1 - 0.0 - - - - - - -
28/10:00am 10.0 S 30 36 1023.0 - 0.0 - - - - - - -
28/09:30am 9.7 S 33 39 1022.9 - 0.0 - - - - - - -
28/09:00am 9.5 S 33 38 1022.7 - 0.2 - - - - - - -
28/08:30am 9.2 S 34 43 1022.4 - 0.2 - - - - - - -
28/08:19am 9.3 S 32 42 1022.5 - 0.2 - - - - - - -
28/08:00am 9.1 S 32 41 1022.4 - 0.2 - - - - - - -
28/07:44am 9.0 S 31 42 1022.1 - 0.2 - - - - - - -
28/07:30am 8.9 S 31 37 1022.1 - 0.2 - - - - - - -
28/07:00am 8.9 S 32 39 1021.8 - 0.2 - - - - - - -
28/06:30am 9.4 S 30 36 1021.4 - 0.2 - - - - - - -
28/06:00am 9.8 S 29 35 1021.0 - 0.2 - - - - - - -
28/05:57am 9.8 S 30 35 1020.9 - 0.2 - - - - - - -
28/05:30am 9.3 SSW 22 25 1020.7 - 0.2 - - - - - - -
28/05:00am 9.6 SSW 21 23 1020.5 - 0.2 - - - - - - -
28/04:30am 9.9 SSW 19 25 1020.3 - 0.2 - - - - - - -
28/04:00am 9.8 SSW 16 19 1020.3 - 0.2 - - - - - - -
28/03:30am 9.7 SSW 16 19 1020.0 - 0.2 - - - - - - -
28/03:20am 9.9 SSW 19 23 1020.1 - 0.2 - - - - - - -
28/03:00am 10.4 S 26 30 1019.9 - 0.2 - - - - - - -
28/02:30am 10.1 S 24 28 1020.0 - 0.2 - - - - - - -
28/02:00am 10.3 S 24 29 1020.3 - 0.2 - - - - - - -
28/01:30am 10.2 S 25 30 1020.5 - 0.2 - - - - - - -
28/01:00am 10.4 S 29 34 1020.3 - 0.2 - - - - - - -
28/12:30am 10.5 S 28 34 1020.1 - 0.2 - - - - - - -
28/12:00am 10.7 S 28 33 1020.0 - 0.2 - - - - - - -
 
Date/Time
EST
Temp

°C
Wind Pressure Rain
since 9am
mm
Weather Cloud Vis
km
Sea
Height
m
Swell
Dir
 
Speed
knots
Gust
knots
hPa Trend Height
m
Period
s
Dir
27/11:30pm 10.8 S 29 35 1019.9 - 0.2 - - - - - - -
27/11:00pm 11.0 S 28 33 1020.2 - 0.2 - - - - - - -
27/10:30pm 11.0 S 26 31 1020.5 - 0.2 - - - - - - -
27/10:00pm 10.7 S 25 30 1020.5 - 0.2 - - - - - - -
27/09:30pm 11.0 S 25 30 1020.5 - 0.2 - - - - - - -
27/09:00pm 10.8 S 22 27 1020.5 - 0.2 - - - - - - -
27/08:30pm 10.9 S 22 27 1020.6 - 0.2 - - - - - - -
27/08:00pm 11.0 S 23 27 1020.5 - 0.2 - - - - - - -
27/07:30pm 11.1 S 22 25 1020.5 - 0.2 - - - - - - -
27/07:00pm 11.4 S 16 20 1020.4 - 0.2 - - - - - - -
27/06:30pm 11.3 S 18 21 1020.0 - 0.2 - - - - - - -
27/06:00pm 11.1 S 19 22 1019.7 - 0.2 - - - - - - -
27/05:30pm 11.6 S 16 19 1019.6 - 0.2 - - - - - - -
27/05:00pm 11.7 SSE 12 14 1019.6 - 0.2 - - - - - - -
27/04:30pm 12.1 SSE 14 16 1019.5 - 0.2 - - - - - - -
27/04:00pm 12.4 SSE 15 18 1019.4 - 0.2 - - - - - - -
27/03:30pm 12.5 S 18 21 1019.5 - 0.2 - - - - - - -
27/03:00pm 12.2 S 18 21 1019.6 - 0.2 Recent precip. - - - - - -
27/02:30pm 12.5 SSE 18 20 1019.8 - 0.2 - - - - - - -
27/02:00pm 13.1 S 17 20 1019.9 - 0.0 - - - - - - -

Other Formats:

Comma delimited format used in spreadsheet applications
http://www.bom.gov.au/fwo/IDT60701/IDT60701.94983.axf

JavaScript Object Notation format (JSON) in row-major order
http://www.bom.gov.au/fwo/IDT60701/IDT60701.94983.json